Friday, January 19, 2018, 2:40 AM EST
Back to Local

KHYA, Hyannis Barnstable Boardmn

Location: West Yarmouth, MA, United States Lat: 41.667
Local Time: 2:40 AM EST ( 7:40 GMT) Lon: -70.267
Time Zone: US/Eastern Elev: 52 ft

Show me the last for .
Show Coded

Time T Td Feel RH Dir Speed Gust Alt SLP Vis Weather Sky Remarks
2018-01-19 01:56 26 17 18 68 300° 7 - 29.92 29.92 10 OVC034 None
2018-01-19 00:56 26 17 18 68 300° 7 - 29.90 29.91 10 OVC032 6-hr Min Temp (1am): 26.1°F
6-hr Max Temp (1am): 30.0°F
2018-01-18 23:56 27 17 19 65 310° 8 - 29.91 29.92 10 OVC031 24-hr Min Temp (12am): 27.0°F
24-hr Max Temp (12am): 33.1°F
2018-01-18 22:56 27 17 20 65 290° 6 - 29.91 29.92 10 OVC030 None
2018-01-18 22:45 28 18 20 65 290° 8 - 29.92 - 10 OVC030 None
2018-01-18 22:25 28 18 20 65 290° 8 - 29.91 - 10 OVC029 None
2018-01-18 21:56 28 19 20 68 290° 8 - 29.92 29.92 10 OVC031 None
2018-01-18 21:39 28 19 21 68 290° 7 - 29.91 - 10 OVC030 None
2018-01-18 20:56 29 19 21 66 300° 8 - 29.90 29.90 10 OVC029 None
2018-01-18 19:56 30 20 21 65 320° 10 - 29.88 29.89 10 OVC028 None
2018-01-18 18:56 29 19 20 66 340° 9 - 29.87 29.87 10 FEW027 6-hr Min Temp (7pm): 28.9°F
6-hr Max Temp (7pm): 33.1°F
2018-01-18 17:56 30 20 17 65 340° 12 23 29.84 29.84 10 CLR None
2018-01-18 16:56 29 21 19 71 340° 12 - 29.81 29.82 10 CLR None
2018-01-18 15:56 30 21 20 68 360° 13 - 29.81 29.82 10 CLR None
2018-01-18 14:56 32 20 23 60 20° 12 - 29.82 29.83 10 CLR None
2018-01-18 13:56 32 20 23 60 340° 13 - 29.81 29.82 10 CLR None
2018-01-18 12:56 32 21 20 63 350° 12 20 29.84 29.84 10 CLR 6-hr Min Temp (1pm): 28.0°F
6-hr Max Temp (1pm): 32.0°F
2018-01-18 11:56 31 22 21 68 10° 13 - 29.86 29.86 10 CLR None
2018-01-18 10:56 29 22 21 74 330° 8 - 29.90 29.90 9 CLR None
2018-01-18 10:23 29 23 21 78 320° 8 - 29.91 - 9 FEW013 None
2018-01-18 09:56 29 23 20 78 340° 9 - 29.93 29.94 9 BKN013 None
2018-01-18 08:56 29 25 22 84 320° 7 - 29.95 29.95 9 OVC010 None
2018-01-18 07:56 30 26 24 84 320° 6 - 29.93 29.93 9 OVC011 None
2018-01-18 06:56 31 27 25 85 340° 6 - 29.92 29.93 10 OVC013 24-hr Precip Total (7am): 0.08"
6-hr Min Temp (7am): 30.9°F
6-hr Max Temp (7am): 33.1°F
2018-01-18 05:56 31 27 26 85 340° 5 - 29.94 29.94 10 OVC014 None
2018-01-18 05:14 32 28 27 85 350° 5 - 29.95 - 10 OVC013 None
2018-01-18 04:56 32 28 26 85 340° 6 - 29.95 29.96 10 OVC015 None
2018-01-18 04:46 32 28 27 85 Variable 5 - 29.95 - 10 OVC015 None
2018-01-18 04:21 32 29 26 88 Variable 7 - 29.95 - 10 OVC014 None
2018-01-18 03:56 32 29 24 88 320° 9 - 29.96 29.96 9 OVC015 None
2018-01-18 03:48 33 30 26 88 320° 8 - 29.97 - 9 OVC015 None
2018-01-18 02:56 33 31 27 91 330° 7 - 29.95 29.96 7 OVC010 None
2018-01-18 02:51 34 30 26 86 330° 9 - 29.95 - 6 BR BKN010 OVC022 None

Support USWX by starting your Amazon purchase here.